Time;durP1;ratioP1;P1;durP2;ratioP2;P2;SDS_P1;SDS_P2;PMS_P1;PMS_P2;Temp;Humidity;BMP_temperature;BMP_pressure;BME280_temperature;BME280_humidity;BME280_pressure;Samples;Min_cycle;Max_cycle;Signal;HPM_P1;HPM_P2
2022/01/10 00:00:01;;;;;;;4.65;4.35;;;-0.30;99.90;;;;;;5070149;28;20681;-59
2022/01/10 00:02:41;;;;;;;4.55;4.25;;;-0.30;99.90;;;;;;5085624;28;20667;-58
2022/01/10 00:05:21;;;;;;;4.80;4.28;;;-0.40;99.90;;;;;;5085987;27;20528;-59
2022/01/10 00:08:02;;;;;;;5.00;4.50;;;-0.50;99.90;;;;;;5085856;28;20664;-60
2022/01/10 00:10:43;;;;;;;6.82;4.68;;;-0.60;99.90;;;;;;5085843;28;20672;-58
2022/01/10 00:13:23;;;;;;;4.55;4.15;;;-0.60;99.90;;;;;;5085798;27;20557;-59
2022/01/10 00:16:04;;;;;;;5.05;4.60;;;-0.50;99.90;;;;;;5085809;28;21198;-58
2022/01/10 00:18:43;;;;;;;6.13;4.97;;;-0.40;99.90;;;;;;5085744;28;20605;-59
2022/01/10 00:21:23;;;;;;;6.72;5.85;;;-0.30;99.90;;;;;;5085846;28;20540;-59
2022/01/10 00:24:03;;;;;;;6.68;6.07;;;-0.10;99.90;;;;;;5106342;27;20662;-58
2022/01/10 00:26:42;;;;;;;7.13;5.60;;;0.00;99.90;;;;;;5086054;28;20676;-59
2022/01/10 00:29:22;;;;;;;9.00;6.80;;;0.20;99.90;;;;;;5086025;27;20656;-58
2022/01/10 00:32:02;;;;;;;8.23;7.53;;;0.40;99.90;;;;;;5085916;28;20679;-58
2022/01/10 00:34:42;;;;;;;8.10;7.35;;;0.50;99.90;;;;;;5147153;27;20653;-58
2022/01/10 00:37:22;;;;;;;5.78;4.55;;;0.50;99.90;;;;;;5147329;27;20976;-58
2022/01/10 00:40:03;;;;;;;5.85;5.32;;;0.60;99.90;;;;;;5085578;28;20679;-59
2022/01/10 00:42:44;;;;;;;7.22;6.45;;;0.60;99.90;;;;;;5086410;27;20584;-58
2022/01/10 00:45:26;;;;;;;8.60;5.95;;;0.60;99.90;;;;;;5082594;28;20562;-58
2022/01/10 00:48:06;;;;;;;9.52;7.63;;;0.70;99.90;;;;;;5084696;28;20663;-59
2022/01/10 00:50:46;;;;;;;10.73;8.10;;;0.70;99.90;;;;;;5150443;27;20542;-59
2022/01/10 00:53:26;;;;;;;6.32;5.65;;;0.80;99.90;;;;;;5126843;27;20951;-58
2022/01/10 00:56:08;;;;;;;7.30;5.80;;;0.80;99.90;;;;;;5085916;28;21212;-59
2022/01/10 00:58:47;;;;;;;6.85;4.80;;;0.80;99.90;;;;;;5147026;27;20554;-58
2022/01/10 01:01:26;;;;;;;6.28;5.78;;;0.90;99.90;;;;;;5147606;27;20693;-58
2022/01/10 01:04:07;;;;;;;7.03;5.45;;;0.90;99.90;;;;;;5085909;28;21024;-58
2022/01/10 01:06:47;;;;;;;7.53;5.93;;;0.90;99.90;;;;;;5127237;27;20536;-59
2022/01/10 01:09:30;;;;;;;7.75;7.05;;;0.90;99.90;;;;;;5085747;28;20688;-58
2022/01/10 01:12:17;;;;;;;5.35;4.88;;;0.90;99.90;;;;;;5086167;27;20551;-58
2022/01/10 01:15:07;;;;;;;7.65;5.90;;;0.90;99.90;;;;;;5106289;27;20980;-58
2022/01/10 01:20:45;;;;;;;7.50;6.68;;;0.90;99.90;;;;;;5086214;28;20943;-58
2022/01/10 01:26:23;;;;;;;6.53;5.97;;;0.90;99.90;;;;;;5112664;27;20536;-58
2022/01/10 01:29:03;;;;;;;6.38;5.82;;;0.90;99.90;;;;;;5077488;27;21085;-59
2022/01/10 01:31:43;;;;;;;6.88;6.35;;;0.90;99.90;;;;;;5085613;27;20559;-58
2022/01/10 01:34:24;;;;;;;6.28;5.68;;;0.90;99.90;;;;;;5084442;28;20551;-59
2022/01/10 01:37:04;;;;;;;5.25;4.85;;;1.00;99.90;;;;;;5105938;27;20968;-59
2022/01/10 01:39:43;;;;;;;5.32;4.80;;;1.00;99.90;;;;;;5066810;28;20685;-58
2022/01/10 01:42:33;;;;;;;5.10;4.72;;;1.00;99.90;;;;;;5085621;28;20695;-58
2022/01/10 01:45:15;;;;;;;6.00;5.47;;;1.10;99.90;;;;;;5106288;27;20533;-59
2022/01/10 01:47:54;;;;;;;7.10;6.40;;;1.00;99.90;;;;;;5086046;27;20861;-58
2022/01/10 01:50:34;;;;;;;6.22;5.63;;;1.10;99.90;;;;;;5146536;27;20666;-58
2022/01/10 01:53:14;;;;;;;6.50;5.32;;;1.10;99.90;;;;;;5085366;28;21037;-58
2022/01/10 01:55:54;;;;;;;6.15;5.55;;;1.10;99.90;;;;;;5105923;27;20849;-58
2022/01/10 01:58:35;;;;;;;6.68;5.53;;;1.10;99.90;;;;;;5086225;28;20672;-59
2022/01/10 02:01:16;;;;;;;6.28;5.78;;;1.10;99.90;;;;;;5105910;27;20558;-59
2022/01/10 02:03:56;;;;;;;5.68;5.13;;;1.10;99.90;;;;;;5086309;28;20680;-59
2022/01/10 02:06:36;;;;;;;4.78;4.38;;;1.10;99.90;;;;;;5083447;28;20684;-57
2022/01/10 02:09:17;;;;;;;5.32;4.82;;;1.00;99.90;;;;;;5084648;28;20699;-58
2022/01/10 02:11:56;;;;;;;5.88;5.35;;;1.00;99.90;;;;;;5147040;27;20534;-58
2022/01/10 02:14:36;;;;;;;5.38;4.88;;;1.10;99.90;;;;;;5085694;28;20543;-58
2022/01/10 02:17:19;;;;;;;5.85;5.25;;;1.00;99.90;;;;;;5085845;28;20676;-59
2022/01/10 02:19:59;;;;;;;5.47;4.95;;;1.00;99.90;;;;;;5090463;27;20555;-58
2022/01/10 02:22:40;;;;;;;5.07;4.57;;;1.00;99.90;;;;;;5084620;28;20678;-59
2022/01/10 02:25:20;;;;;;;5.70;5.20;;;1.00;99.90;;;;;;5116215;27;20557;-58
2022/01/10 02:28:00;;;;;;;9.07;5.65;;;1.00;99.90;;;;;;5095008;27;20554;-58
2022/01/10 02:30:40;;;;;;;6.05;5.47;;;1.00;99.90;;;;;;5085274;28;20680;-58
2022/01/10 02:33:19;;;;;;;5.40;4.78;;;1.00;99.90;;;;;;5065570;28;20694;-58
2022/01/10 02:36:08;;;;;;;5.38;4.97;;;1.00;99.90;;;;;;5147210;27;21083;-58
2022/01/10 02:38:52;;;;;;;5.43;5.03;;;1.00;99.90;;;;;;5084089;27;21057;-59
2022/01/10 02:41:34;;;;;;;5.25;4.70;;;1.00;99.90;;;;;;5081944;27;20541;-58
2022/01/10 02:44:16;;;;;;;5.47;4.90;;;0.90;99.90;;;;;;5105239;27;21027;-59
2022/01/10 02:46:56;;;;;;;5.25;4.75;;;0.90;99.90;;;;;;5118729;27;21065;-59
2022/01/10 02:49:37;;;;;;;5.35;4.85;;;0.90;99.90;;;;;;5106404;27;20558;-59
2022/01/10 02:52:34;;;;;;;5.68;5.05;;;0.80;99.90;;;;;;5106295;27;20550;-59
2022/01/10 02:55:14;;;;;;;5.00;4.60;;;0.70;99.90;;;;;;5084851;28;20535;-59
2022/01/10 02:57:53;;;;;;;7.20;4.78;;;0.60;99.90;;;;;;5085947;28;20659;-59
2022/01/10 03:00:33;;;;;;;6.60;6.10;;;0.40;99.90;;;;;;5083899;27;20387;-58
2022/01/10 03:03:12;;;;;;;6.55;6.05;;;0.30;99.90;;;;;;5085960;28;20675;-58
2022/01/10 03:05:53;;;;;;;7.88;6.00;;;0.30;99.90;;;;;;5105179;27;21059;-58
2022/01/10 03:08:33;;;;;;;6.18;5.57;;;0.40;99.90;;;;;;5084447;27;20559;-59
2022/01/10 03:11:12;;;;;;;8.07;7.35;;;0.40;99.90;;;;;;5141593;27;20681;-59
2022/01/10 03:13:52;;;;;;;6.55;6.07;;;0.30;99.90;;;;;;5083936;28;21052;-59
2022/01/10 03:16:31;;;;;;;6.03;5.50;;;0.40;99.90;;;;;;5084803;27;20531;-58
2022/01/10 03:19:11;;;;;;;7.10;5.25;;;0.50;99.90;;;;;;5138542;27;20674;-58
2022/01/10 03:21:51;;;;;;;5.53;5.03;;;0.60;99.90;;;;;;5106108;27;20685;-59
2022/01/10 03:24:31;;;;;;;5.78;5.28;;;0.70;99.90;;;;;;5084891;27;20802;-58
2022/01/10 03:27:11;;;;;;;10.02;8.20;;;0.80;99.90;;;;;;5085585;28;21029;-58
2022/01/10 03:29:51;;;;;;;11.00;9.98;;;0.80;99.90;;;;;;5070502;27;21025;-58
2022/01/10 03:32:30;;;;;;;12.27;10.18;;;0.90;99.90;;;;;;5106059;27;20904;-58
2022/01/10 03:35:11;;;;;;;12.90;11.50;;;0.80;99.90;;;;;;5135783;27;20620;-58
2022/01/10 03:37:50;;;;;;;15.82;13.70;;;0.90;99.90;;;;;;5098705;27;20669;-58
2022/01/10 03:40:30;;;;;;;13.75;11.98;;;0.90;99.90;;;;;;5085829;27;20611;-59
2022/01/10 03:43:10;;;;;;;11.38;10.23;;;0.90;99.90;;;;;;5126445;27;20544;-58
2022/01/10 03:45:50;;;;;;;14.30;9.30;;;0.90;99.90;;;;;;5084528;27;20573;-59
2022/01/10 03:48:29;;;;;;;11.00;9.90;;;0.90;99.90;;;;;;5082628;27;20561;-58
2022/01/10 03:51:09;;;;;;;9.85;8.95;;;1.00;99.90;;;;;;5085912;28;20539;-58
2022/01/10 03:53:49;;;;;;;7.72;7.13;;;1.00;99.90;;;;;;5126804;27;21080;-58
2022/01/10 03:56:30;;;;;;;7.47;6.88;;;0.90;99.90;;;;;;5126499;27;20745;-58
2022/01/10 03:59:10;;;;;;;7.40;6.70;;;1.00;99.90;;;;;;5085806;27;20707;-59
2022/01/10 04:01:51;;;;;;;7.07;6.47;;;1.00;99.90;;;;;;5147865;27;21015;-59
2022/01/10 04:04:30;;;;;;;7.88;7.28;;;1.00;99.90;;;;;;5106272;27;21070;-58
2022/01/10 04:07:11;;;;;;;6.60;6.10;;;1.00;99.90;;;;;;5085915;27;21053;-58
2022/01/10 04:09:51;;;;;;;8.23;7.60;;;1.00;99.90;;;;;;5147448;27;20686;-58
2022/01/10 04:12:31;;;;;;;7.22;6.35;;;1.00;99.90;;;;;;5147460;27;21005;-59
2022/01/10 04:15:11;;;;;;;7.35;6.65;;;1.00;99.90;;;;;;5085730;28;20656;-58
2022/01/10 04:17:55;;;;;;;6.88;6.28;;;1.00;99.90;;;;;;5086408;28;20539;-59
2022/01/10 04:20:35;;;;;;;5.47;5.07;;;0.90;99.90;;;;;;5106353;27;20673;-59
2022/01/10 04:23:17;;;;;;;6.00;5.50;;;1.00;99.90;;;;;;5106339;27;21036;-59
2022/01/10 04:25:57;;;;;;;6.30;5.70;;;1.00;99.90;;;;;;5083886;28;20664;-59
2022/01/10 04:28:36;;;;;;;7.30;6.68;;;1.00;99.90;;;;;;5105740;27;20557;-58
2022/01/10 04:31:16;;;;;;;6.88;6.38;;;1.00;99.90;;;;;;5083499;28;20577;-58
2022/01/10 04:33:56;;;;;;;6.80;6.30;;;1.00;99.90;;;;;;5086343;27;21199;-56
2022/01/10 04:36:36;;;;;;;8.27;7.47;;;0.90;99.90;;;;;;5084584;28;20668;-59
2022/01/10 04:39:16;;;;;;;9.38;7.80;;;1.00;99.90;;;;;;5084959;28;20687;-58
2022/01/10 04:41:55;;;;;;;10.32;9.40;;;1.00;99.90;;;;;;5085063;28;20676;-59
2022/01/10 04:44:35;;;;;;;10.63;9.63;;;1.00;99.90;;;;;;5085513;28;20680;-58
2022/01/10 04:47:15;;;;;;;12.85;10.27;;;1.00;99.90;;;;;;5085800;28;20656;-59
2022/01/10 04:50:22;;;;;;;12.63;9.07;;;1.00;99.90;;;;;;5074092;28;20723;-59
2022/01/10 04:53:02;;;;;;;10.30;9.15;;;1.00;99.90;;;;;;5140800;27;20673;-58
2022/01/10 04:55:42;;;;;;;10.75;9.32;;;1.00;99.90;;;;;;5105854;27;21229;-58
2022/01/10 04:58:22;;;;;;;12.93;10.90;;;1.00;99.90;;;;;;5082134;27;21080;-58
2022/01/10 05:01:03;;;;;;;12.63;11.32;;;1.10;99.90;;;;;;5085311;27;21072;-59
2022/01/10 05:03:43;;;;;;;12.27;10.85;;;1.10;99.90;;;;;;5100194;27;21230;-59
2022/01/10 05:06:23;;;;;;;12.25;11.00;;;1.00;99.90;;;;;;5105590;27;20538;-58
2022/01/10 05:09:04;;;;;;;11.55;10.55;;;1.00;99.90;;;;;;5103528;27;20607;-58
2022/01/10 05:11:43;;;;;;;18.98;11.18;;;1.10;99.90;;;;;;5109378;27;20541;-58
2022/01/10 05:14:22;;;;;;;22.52;13.90;;;1.10;99.90;;;;;;5085588;27;20539;-58
2022/01/10 05:17:02;;;;;;;14.68;12.95;;;1.10;99.90;;;;;;5124619;27;21029;-58
2022/01/10 05:19:42;;;;;;;14.63;12.32;;;1.10;99.90;;;;;;5134629;27;20681;-58
2022/01/10 05:22:22;;;;;;;17.65;12.27;;;1.10;99.90;;;;;;5096806;27;20558;-59
2022/01/10 05:25:01;;;;;;;14.20;9.82;;;1.00;99.90;;;;;;5119233;27;20563;-59
2022/01/10 05:27:41;;;;;;;15.20;11.80;;;1.10;99.90;;;;;;5079131;27;20561;-59
2022/01/10 05:30:21;;;;;;;14.02;12.40;;;1.00;99.90;;;;;;5097828;27;21090;-59
2022/01/10 05:33:01;;;;;;;13.88;12.43;;;1.00;99.90;;;;;;5111567;27;21402;-59
2022/01/10 05:35:44;;;;;;;13.45;11.45;;;1.00;99.90;;;;;;5082049;28;20675;-59
2022/01/10 05:38:24;;;;;;;12.07;10.68;;;1.10;99.90;;;;;;5100646;22;21151;-57
2022/01/10 05:41:04;;;;;;;15.30;13.70;;;1.10;99.90;;;;;;5102187;27;20553;-57
2022/01/10 05:43:44;;;;;;;16.40;14.68;;;1.10;99.90;;;;;;5080490;27;21091;-57
2022/01/10 05:46:23;;;;;;;15.25;13.75;;;1.10;99.90;;;;;;5100085;27;20577;-57
2022/01/10 05:49:04;;;;;;;13.52;12.15;;;1.10;99.90;;;;;;5072293;28;20697;-58
2022/01/10 05:51:43;;;;;;;13.52;12.15;;;1.10;99.90;;;;;;5083407;27;20551;-55
2022/01/10 05:54:23;;;;;;;9.43;8.52;;;1.10;99.90;;;;;;5083668;28;21205;-57
2022/01/10 05:57:03;;;;;;;9.30;8.50;;;1.10;99.90;;;;;;5083501;28;20552;-58
2022/01/10 05:59:42;;;;;;;9.40;8.45;;;1.10;99.90;;;;;;5085799;27;20563;-57
2022/01/10 06:02:23;;;;;;;8.43;7.25;;;1.10;99.90;;;;;;5147642;27;20653;-57
2022/01/10 06:05:08;;;;;;;7.57;6.88;;;1.10;99.90;;;;;;5085374;28;20684;-57
2022/01/10 06:07:48;;;;;;;8.23;7.45;;;1.20;99.90;;;;;;5085862;27;20551;-58
2022/01/10 06:10:31;;;;;;;7.70;6.90;;;1.20;99.90;;;;;;5103700;22;21178;-58
2022/01/10 06:13:11;;;;;;;8.35;7.55;;;1.10;99.90;;;;;;5086109;28;20664;-57
2022/01/10 06:15:52;;;;;;;7.53;6.85;;;1.00;99.90;;;;;;5125450;27;21068;-57
2022/01/10 06:18:31;;;;;;;7.88;7.07;;;0.90;99.90;;;;;;5084792;27;20894;-57
2022/01/10 06:21:11;;;;;;;8.85;7.78;;;0.80;99.90;;;;;;5146573;27;20672;-57
2022/01/10 06:23:51;;;;;;;7.60;6.88;;;0.50;99.90;;;;;;5146144;27;20763;-57
2022/01/10 06:26:30;;;;;;;7.53;6.70;;;0.40;99.90;;;;;;5104733;27;20534;-57
2022/01/10 06:29:10;;;;;;;7.68;7.03;;;0.30;99.90;;;;;;5084771;28;21064;-57
2022/01/10 06:31:50;;;;;;;7.40;6.60;;;0.30;99.90;;;;;;5085998;28;20539;-57
2022/01/10 06:34:30;;;;;;;7.45;6.75;;;0.30;99.90;;;;;;5106698;27;20537;-57
2022/01/10 06:37:10;;;;;;;8.90;8.20;;;0.30;99.90;;;;;;5127034;27;20541;-57
2022/01/10 06:39:49;;;;;;;7.22;6.47;;;0.30;99.90;;;;;;5106688;27;20545;-58
2022/01/10 06:42:29;;;;;;;9.27;6.45;;;0.30;99.90;;;;;;5127052;27;20561;-57
2022/01/10 06:45:11;;;;;;;6.82;6.22;;;0.30;99.90;;;;;;5156362;27;20541;-57
2022/01/10 06:47:51;;;;;;;7.25;6.70;;;0.30;99.90;;;;;;5086153;28;20553;-57
2022/01/10 06:50:30;;;;;;;8.80;6.97;;;0.20;99.90;;;;;;5074325;27;20560;-58
2022/01/10 06:53:10;;;;;;;7.40;6.80;;;0.20;99.90;;;;;;5121730;27;21186;-58
2022/01/10 06:55:50;;;;;;;10.27;6.38;;;0.10;99.90;;;;;;5104203;27;20541;-57
2022/01/10 06:58:30;;;;;;;7.88;7.05;;;0.10;99.90;;;;;;5105013;27;20576;-57
2022/01/10 07:01:10;;;;;;;7.10;6.40;;;0.10;99.90;;;;;;5084561;27;20973;-57
2022/01/10 07:03:52;;;;;;;6.50;6.00;;;-0.10;99.90;;;;;;5084514;27;21125;-57
2022/01/10 07:06:33;;;;;;;7.70;6.90;;;-0.30;99.90;;;;;;5125604;27;20667;-58
2022/01/10 07:09:12;;;;;;;7.10;6.40;;;-0.40;99.90;;;;;;5162623;27;21041;-58
2022/01/10 07:11:52;;;;;;;7.65;7.05;;;-0.50;99.90;;;;;;5146808;27;20588;-57
2022/01/10 07:14:34;;;;;;;7.47;6.88;;;-0.60;99.90;;;;;;5085483;27;20584;-57
2022/01/10 07:17:14;;;;;;;7.43;6.75;;;-0.50;99.90;;;;;;5085286;28;20593;-57
2022/01/10 07:19:54;;;;;;;7.68;6.97;;;-0.40;99.90;;;;;;5085452;27;20605;-58
2022/01/10 07:22:33;;;;;;;8.73;7.00;;;-0.30;99.90;;;;;;5085597;28;20663;-57
2022/01/10 07:25:13;;;;;;;7.00;6.40;;;-0.20;99.90;;;;;;5126333;27;20539;-58
2022/01/10 07:27:53;;;;;;;7.65;6.93;;;-0.10;99.90;;;;;;5085631;28;20949;-58
2022/01/10 07:30:33;;;;;;;7.50;6.90;;;-0.20;99.90;;;;;;5085180;27;20578;-57
2022/01/10 07:33:13;;;;;;;7.20;6.60;;;-0.10;99.90;;;;;;5085787;28;20597;-57
2022/01/10 07:35:52;;;;;;;7.30;6.70;;;-0.10;99.90;;;;;;5085904;28;20660;-57
2022/01/10 07:38:35;;;;;;;8.52;6.53;;;0.00;99.90;;;;;;5147678;27;20657;-57
2022/01/10 07:41:15;;;;;;;9.13;7.57;;;0.10;99.90;;;;;;5106499;27;20611;-57
2022/01/10 07:43:56;;;;;;;8.25;7.40;;;0.30;99.90;;;;;;5086678;27;20560;-58
2022/01/10 07:46:35;;;;;;;7.72;7.10;;;0.40;99.90;;;;;;5086372;27;21130;-57
2022/01/10 07:49:15;;;;;;;8.10;7.45;;;0.40;99.90;;;;;;5106561;27;20558;-57
2022/01/10 07:51:57;;;;;;;7.45;6.75;;;0.50;99.90;;;;;;5147723;27;20531;-56
2022/01/10 07:54:37;;;;;;;7.80;7.10;;;0.60;99.90;;;;;;5086509;27;20793;-57
2022/01/10 07:57:17;;;;;;;8.00;7.22;;;0.70;99.90;;;;;;5086269;28;20597;-57
2022/01/10 07:59:57;;;;;;;11.45;7.47;;;0.80;99.90;;;;;;5126963;27;20544;-58
2022/01/10 08:02:37;;;;;;;9.15;8.35;;;0.90;99.90;;;;;;5147256;27;20534;-57
2022/01/10 08:05:17;;;;;;;8.02;7.22;;;1.10;99.90;;;;;;5106329;27;20542;-57
2022/01/10 08:07:57;;;;;;;8.65;7.93;;;1.20;99.90;;;;;;5105648;27;20657;-57
2022/01/10 08:10:37;;;;;;;8.05;7.35;;;1.30;99.90;;;;;;5085933;28;20672;-57
2022/01/10 08:13:16;;;;;;;8.20;7.40;;;1.30;99.90;;;;;;5085781;27;20527;-58
2022/01/10 08:15:56;;;;;;;8.27;7.47;;;1.30;99.90;;;;;;5147402;27;20543;-57
2022/01/10 08:18:36;;;;;;;8.75;8.05;;;1.40;99.90;;;;;;5085529;28;20708;-57
2022/01/10 08:21:16;;;;;;;9.23;8.15;;;1.40;99.90;;;;;;5085624;28;21185;-57
2022/01/10 08:23:57;;;;;;;9.75;8.45;;;1.50;99.90;;;;;;5126238;27;20536;-57
2022/01/10 08:26:37;;;;;;;8.20;7.43;;;1.60;99.90;;;;;;5085608;28;20668;-58
2022/01/10 08:29:17;;;;;;;8.60;7.63;;;1.60;99.90;;;;;;5085628;28;21049;-57
2022/01/10 08:31:57;;;;;;;8.82;7.45;;;1.60;99.90;;;;;;5086168;27;20543;-57
2022/01/10 08:34:36;;;;;;;9.00;8.15;;;1.70;99.90;;;;;;5126236;27;20540;-57
2022/01/10 08:37:16;;;;;;;8.13;7.13;;;1.80;99.90;;;;;;5085468;28;20664;-57
2022/01/10 08:39:56;;;;;;;8.23;7.40;;;1.90;99.90;;;;;;5085494;27;20691;-57
2022/01/10 08:42:37;;;;;;;9.18;7.30;;;1.90;99.90;;;;;;5146870;27;20542;-57
2022/01/10 08:45:16;;;;;;;9.75;7.53;;;1.90;99.90;;;;;;5126403;27;21084;-57
2022/01/10 08:47:56;;;;;;;10.25;8.15;;;1.90;99.90;;;;;;5105829;27;20674;-57
2022/01/10 08:50:36;;;;;;;9.23;8.43;;;2.00;99.90;;;;;;5126271;27;20548;-57
2022/01/10 08:53:15;;;;;;;8.43;7.72;;;2.10;99.90;;;;;;5105783;27;20678;-57
2022/01/10 08:55:55;;;;;;;7.75;7.15;;;2.10;99.90;;;;;;5106418;27;21210;-57
2022/01/10 08:58:35;;;;;;;8.88;8.07;;;2.10;99.90;;;;;;5106211;27;20546;-57
2022/01/10 09:01:15;;;;;;;8.57;7.78;;;2.20;99.90;;;;;;5126314;27;20536;-57
2022/01/10 09:03:55;;;;;;;8.50;7.80;;;2.30;99.90;;;;;;5084832;27;20561;-57
2022/01/10 09:06:34;;;;;;;9.10;8.30;;;2.30;99.90;;;;;;5084893;28;20711;-57
2022/01/10 09:09:15;;;;;;;9.40;8.50;;;2.40;99.90;;;;;;5158182;27;21011;-57
2022/01/10 09:11:54;;;;;;;9.43;8.73;;;2.50;99.90;;;;;;5126600;27;21067;-57
2022/01/10 09:14:34;;;;;;;8.38;7.38;;;2.50;99.90;;;;;;5146883;27;20542;-58
2022/01/10 09:17:14;;;;;;;8.88;8.07;;;2.50;99.90;;;;;;5085571;28;20539;-57
2022/01/10 09:19:53;;;;;;;8.45;7.78;;;2.50;99.90;;;;;;5085416;27;20585;-57
2022/01/10 09:22:33;;;;;;;8.52;7.75;;;2.60;99.90;;;;;;5085260;27;20539;-57
2022/01/10 09:25:13;;;;;;;7.90;7.28;;;2.60;99.90;;;;;;5126290;27;20532;-57
2022/01/10 09:27:53;;;;;;;8.75;8.10;;;2.70;99.90;;;;;;5086026;27;20675;-57
2022/01/10 09:30:33;;;;;;;7.90;7.28;;;2.90;99.90;;;;;;5126716;27;20552;-57
2022/01/10 09:33:13;;;;;;;8.35;7.65;;;3.10;99.90;;;;;;5085496;27;20543;-57
2022/01/10 09:35:52;;;;;;;7.93;7.15;;;3.20;99.90;;;;;;5085386;28;21016;-57
2022/01/10 09:38:33;;;;;;;7.40;6.70;;;3.20;99.90;;;;;;5125924;27;20728;-56
2022/01/10 09:41:12;;;;;;;7.50;6.80;;;3.20;99.90;;;;;;5085228;28;20867;-57
2022/01/10 09:43:53;;;;;;;7.05;6.35;;;3.30;99.90;;;;;;5105415;27;20669;-57
2022/01/10 09:46:34;;;;;;;6.82;6.13;;;3.40;99.90;;;;;;5105938;27;20545;-57
2022/01/10 09:49:13;;;;;;;7.60;6.85;;;3.40;99.90;;;;;;5147123;27;20681;-57
2022/01/10 09:51:53;;;;;;;7.40;6.68;;;3.40;99.90;;;;;;5106244;27;20665;-57
2022/01/10 09:54:33;;;;;;;6.88;6.18;;;3.40;99.90;;;;;;5105871;27;20545;-57
2022/01/10 09:57:13;;;;;;;7.00;6.40;;;3.30;99.90;;;;;;5086184;27;20543;-57
2022/01/10 09:59:52;;;;;;;7.85;7.05;;;3.40;99.90;;;;;;5085954;28;20672;-57
2022/01/10 10:02:33;;;;;;;6.72;6.18;;;3.40;99.90;;;;;;5105980;27;20599;-57
2022/01/10 10:05:13;;;;;;;7.10;6.47;;;3.40;99.90;;;;;;5146589;27;20665;-57
2022/01/10 10:07:52;;;;;;;6.53;5.95;;;3.30;99.90;;;;;;5146862;27;20661;-57
2022/01/10 10:10:33;;;;;;;7.10;6.60;;;3.20;99.90;;;;;;5105552;27;20615;-57
2022/01/10 10:13:15;;;;;;;6.88;6.28;;;3.30;99.90;;;;;;5126378;27;20544;-57
2022/01/10 10:15:55;;;;;;;6.70;6.10;;;3.40;99.90;;;;;;5106346;27;21194;-57
2022/01/10 10:18:34;;;;;;;6.93;6.43;;;3.40;99.90;;;;;;5147049;27;20649;-57
2022/01/10 10:21:16;;;;;;;8.23;7.63;;;3.50;99.90;;;;;;5105938;27;20682;-57
2022/01/10 10:23:56;;;;;;;8.13;7.32;;;3.60;99.90;;;;;;5147381;27;20558;-57
2022/01/10 10:26:36;;;;;;;6.60;5.97;;;3.80;99.90;;;;;;5106140;27;20541;-57
2022/01/10 10:29:17;;;;;;;6.18;5.57;;;3.90;99.90;;;;;;5150236;27;20557;-57
2022/01/10 10:32:02;;;;;;;6.00;5.50;;;4.00;99.90;;;;;;5085920;28;21021;-58
2022/01/10 10:34:42;;;;;;;5.97;5.40;;;4.20;99.90;;;;;;5085412;27;20551;-57
2022/01/10 10:37:21;;;;;;;6.95;6.28;;;4.40;99.90;;;;;;5085951;27;20539;-58
2022/01/10 10:40:03;;;;;;;6.28;5.78;;;4.60;99.90;;;;;;5085505;27;20560;-57
2022/01/10 10:42:45;;;;;;;6.05;5.53;;;4.70;99.90;;;;;;5106567;27;20537;-58
2022/01/10 10:45:28;;;;;;;6.22;5.63;;;4.80;99.90;;;;;;5126755;27;20659;-57
2022/01/10 10:48:09;;;;;;;6.75;6.15;;;4.70;99.90;;;;;;5106262;27;20665;-57
2022/01/10 10:50:48;;;;;;;6.85;6.20;;;4.80;99.90;;;;;;5086220;27;20552;-57
2022/01/10 10:53:30;;;;;;;6.60;6.00;;;4.80;99.90;;;;;;5106110;27;20550;-57
2022/01/10 10:56:10;;;;;;;6.10;5.50;;;4.80;99.90;;;;;;5106354;27;20538;-57
2022/01/10 10:58:49;;;;;;;6.70;6.18;;;4.80;99.90;;;;;;5107334;27;20654;-57
2022/01/10 11:01:29;;;;;;;6.28;5.70;;;4.80;99.90;;;;;;5127003;27;20585;-57
2022/01/10 11:04:11;;;;;;;6.90;5.95;;;4.70;99.90;;;;;;5146492;27;20662;-57
2022/01/10 11:06:52;;;;;;;7.07;6.43;;;4.70;99.90;;;;;;5145155;27;20573;-57
2022/01/10 11:09:30;;;;;;;6.85;5.65;;;4.60;99.90;;;;;;5075605;27;20566;-57
2022/01/10 11:12:13;;;;;;;6.93;5.82;;;4.70;99.90;;;;;;5145955;27;20538;-57
2022/01/10 11:14:56;;;;;;;5.70;5.20;;;4.60;99.90;;;;;;5084625;27;20543;-57
2022/01/10 11:17:35;;;;;;;6.28;5.78;;;4.70;99.90;;;;;;5084310;28;20837;-57
2022/01/10 11:20:17;;;;;;;6.10;5.50;;;4.60;99.90;;;;;;5146744;27;20543;-57
2022/01/10 11:22:58;;;;;;;7.57;4.95;;;4.50;99.90;;;;;;5106720;27;20697;-57
2022/01/10 11:25:40;;;;;;;6.60;6.00;;;4.30;99.90;;;;;;5085539;27;20540;-57
2022/01/10 11:28:24;;;;;;;6.22;5.60;;;4.10;99.90;;;;;;5105171;27;21230;-57
2022/01/10 11:31:07;;;;;;;6.05;5.60;;;4.00;99.90;;;;;;5085135;28;20672;-57
2022/01/10 11:33:47;;;;;;;5.60;5.20;;;4.10;99.90;;;;;;5137148;27;20996;-57
2022/01/10 11:36:29;;;;;;;6.25;5.65;;;4.30;99.90;;;;;;5085428;27;20683;-57
2022/01/10 11:39:13;;;;;;;6.25;5.00;;;4.50;99.90;;;;;;5083264;28;21181;-57
2022/01/10 11:41:55;;;;;;;5.55;5.10;;;4.60;99.90;;;;;;5102937;27;20554;-57
2022/01/10 11:44:35;;;;;;;6.05;5.45;;;4.70;99.90;;;;;;5101493;27;21097;-57
2022/01/10 11:47:16;;;;;;;5.85;5.35;;;4.80;99.90;;;;;;5111016;27;20552;-57
2022/01/10 11:50:24;;;;;;;5.68;5.18;;;4.90;99.90;;;;;;5126305;27;20552;-55
2022/01/10 11:53:05;;;;;;;6.07;5.47;;;5.00;99.90;;;;;;5085870;28;20668;-57
2022/01/10 11:55:54;;;;;;;6.15;5.63;;;5.30;99.90;;;;;;5121463;27;21064;-57
2022/01/10 11:58:33;;;;;;;5.05;4.55;;;5.50;99.90;;;;;;5146416;27;20546;-57
2022/01/10 12:01:13;;;;;;;6.25;5.20;;;5.60;99.90;;;;;;5080857;28;20699;-57
2022/01/10 12:03:54;;;;;;;4.15;3.70;;;5.70;99.90;;;;;;5145861;27;20550;-57
2022/01/10 12:06:34;;;;;;;4.85;4.45;;;5.80;99.90;;;;;;5105375;27;21059;-57
2022/01/10 12:09:14;;;;;;;10.20;9.32;;;5.90;99.90;;;;;;5085295;27;20579;-57
2022/01/10 12:11:56;;;;;;;10.55;7.35;;;5.80;99.90;;;;;;5106177;27;20538;-57
2022/01/10 12:14:35;;;;;;;7.72;7.03;;;5.70;99.90;;;;;;5084810;27;20676;-57
2022/01/10 12:17:16;;;;;;;18.90;17.60;;;5.60;99.90;;;;;;5104956;27;20430;-57
2022/01/10 12:19:55;;;;;;;48.67;44.00;;;5.30;99.90;;;;;;5126163;27;20552;-57
2022/01/10 12:22:35;;;;;;;5.93;5.53;;;5.20;99.90;;;;;;5085603;28;20687;-57
2022/01/10 12:25:14;;;;;;;3.90;3.55;;;5.20;99.90;;;;;;5085323;27;20573;-57
2022/01/10 12:27:57;;;;;;;2.45;2.25;;;5.10;99.90;;;;;;5126657;27;20659;-57
2022/01/10 12:30:38;;;;;;;3.85;2.20;;;5.00;99.90;;;;;;5078417;27;20549;-57
2022/01/10 12:33:17;;;;;;;3.58;3.00;;;4.90;99.90;;;;;;5085689;28;20660;-57
2022/01/10 12:35:57;;;;;;;3.45;2.90;;;5.00;99.90;;;;;;5085293;27;20581;-57
2022/01/10 12:38:38;;;;;;;3.20;2.85;;;5.20;99.90;;;;;;5085717;28;20664;-57
2022/01/10 12:41:20;;;;;;;4.03;3.25;;;5.30;99.90;;;;;;5085621;28;20680;-57
2022/01/10 12:44:00;;;;;;;3.00;2.65;;;5.50;99.90;;;;;;5126227;27;20680;-57
2022/01/10 12:46:40;;;;;;;3.20;2.28;;;5.60;99.90;;;;;;5126690;27;20548;-57
2022/01/10 12:49:19;;;;;;;2.97;2.63;;;5.70;99.90;;;;;;5081009;27;21178;-57
2022/01/10 12:52:00;;;;;;;4.63;2.10;;;5.70;99.90;;;;;;5085125;27;20671;-57
2022/01/10 12:54:39;;;;;;;2.50;2.30;;;5.60;99.90;;;;;;5147247;27;20767;-57
2022/01/10 12:57:19;;;;;;;4.13;2.53;;;5.50;99.90;;;;;;5147391;27;20684;-57
2022/01/10 12:59:59;;;;;;;3.28;2.47;;;5.50;99.90;;;;;;5105323;27;20545;-57
2022/01/10 13:02:38;;;;;;;3.25;2.60;;;5.40;99.90;;;;;;5085327;28;20543;-57
2022/01/10 13:05:20;;;;;;;2.45;1.90;;;5.40;99.90;;;;;;5085267;27;20671;-57
2022/01/10 13:08:01;;;;;;;2.90;2.22;;;5.30;99.90;;;;;;5126323;27;20547;-57
2022/01/10 13:10:44;;;;;;;2.33;1.95;;;5.30;99.90;;;;;;5106081;27;20677;-57
2022/01/10 13:13:24;;;;;;;4.60;2.40;;;5.30;99.90;;;;;;5120061;27;20569;-57
2022/01/10 13:16:22;;;;;;;2.40;2.17;;;5.40;99.90;;;;;;5125207;27;20547;-57
2022/01/10 13:19:06;;;;;;;3.80;1.80;;;5.40;99.90;;;;;;5084527;27;20587;-57
2022/01/10 13:21:51;;;;;;;3.65;1.80;;;5.30;99.90;;;;;;5144131;27;20682;-57
2022/01/10 13:24:32;;;;;;;2.40;2.20;;;5.30;99.90;;;;;;5104948;27;20546;-57
2022/01/10 13:27:17;;;;;;;3.05;2.53;;;5.30;99.90;;;;;;5085509;28;20676;-57
2022/01/10 13:29:56;;;;;;;3.05;2.45;;;5.30;99.90;;;;;;5102305;27;20559;-57
2022/01/10 13:32:36;;;;;;;3.05;2.03;;;5.20;99.90;;;;;;5085442;28;20659;-57
2022/01/10 13:35:19;;;;;;;2.90;2.17;;;5.10;99.90;;;;;;5085674;27;20543;-56
2022/01/10 13:38:05;;;;;;;3.53;2.15;;;5.00;99.90;;;;;;5126586;27;20671;-57
2022/01/10 13:40:46;;;;;;;3.67;2.70;;;4.90;99.90;;;;;;5079930;28;20674;-57
2022/01/10 13:43:30;;;;;;;2.30;1.75;;;4.80;99.90;;;;;;5147424;27;20547;-57
2022/01/10 13:46:18;;;;;;;3.35;2.65;;;4.70;99.90;;;;;;5085021;27;20903;-58
2022/01/10 13:49:01;;;;;;;2.60;2.40;;;4.70;99.90;;;;;;5125922;27;21190;-57
2022/01/10 13:51:41;;;;;;;3.55;2.20;;;4.60;99.90;;;;;;5085409;27;20898;-58
2022/01/10 13:54:30;;;;;;;2.40;2.20;;;4.60;99.90;;;;;;5085523;28;20659;-57
2022/01/10 13:57:21;;;;;;;5.47;2.70;;;4.60;99.90;;;;;;5085985;27;20532;-57
2022/01/10 14:00:18;;;;;;;2.40;2.17;;;4.50;99.90;;;;;;5108348;27;20561;-57
2022/01/10 14:02:57;;;;;;;4.72;2.28;;;4.50;99.90;;;;;;5105106;27;20538;-57
2022/01/10 14:05:37;;;;;;;2.35;1.95;;;4.50;99.90;;;;;;5126123;27;20675;-57
2022/01/10 14:08:16;;;;;;;2.85;2.03;;;4.40;99.90;;;;;;5147290;27;21024;-57